Terminal Aerodrome Forecast
Issued by NWS

Home | Current Version | Previous Version | Graphics & Text | Print | Product List | Glossary On
Versions: 1 2 3 4 5 6 7 8 9 10 11 12 13 14 15 16 17 18 19
000
FTUS43 KICT 280520
TAFRSL
TAF
KRSL 280520Z 2806/2906 17014KT P6SM VCTS SCT040CB BKN080
     FM281100 28008KT P6SM SCT030 BKN070
     FM281600 32010KT P6SM SCT050 SCT100
     FM290000 36005KT P6SM BKN050=

USA.gov is the U.S. government's official web portal to all federal, state and local government web resources and services.